Time;durP1;ratioP1;P1;durP2;ratioP2;P2;SDS_P1;SDS_P2;PMS_P1;PMS_P2;Temp;Humidity;BMP_temperature;BMP_pressure;BME280_temperature;BME280_humidity;BME280_pressure;Samples;Min_cycle;Max_cycle;Signal;HPM_P1;HPM_P2
2023/11/01 00:00:16;;;;;;;11.85;4.90;;;;;;;;;;10323347;28;20030;-80
2023/11/01 00:05:16;;;;;;;13.05;3.60;;;;;;;;;;10308090;28;20450;-80
2023/11/01 00:10:16;;;;;;;13.30;4.28;;;;;;;;;;10319786;28;20022;-77
2023/11/01 00:15:17;;;;;;;11.95;4.53;;;;;;;;;;10319985;28;20027;-76
2023/11/01 00:20:17;;;;;;;8.67;3.67;;;;;;;;;;10338619;28;20452;-76
2023/11/01 00:25:17;;;;;;;8.50;3.33;;;;;;;;;;10322064;28;20501;-76
2023/11/01 00:30:18;;;;;;;9.50;3.33;;;;;;;;;;10339982;28;20502;-80
2023/11/01 00:35:18;;;;;;;18.67;4.15;;;;;;;;;;10306191;28;20485;-76
2023/11/01 00:40:19;;;;;;;14.45;3.50;;;;;;;;;;10318901;28;20054;-78
2023/11/01 00:45:19;;;;;;;13.63;3.70;;;;;;;;;;10324096;28;20471;-75
2023/11/01 00:50:21;;;;;;;10.93;4.45;;;;;;;;;;10333358;28;20081;-79
2023/11/01 00:55:21;;;;;;;10.18;3.80;;;;;;;;;;10335186;28;20030;-79
2023/11/01 01:00:21;;;;;;;16.43;5.00;;;;;;;;;;10325848;28;20041;-81
2023/11/01 01:05:23;;;;;;;10.63;4.45;;;;;;;;;;10326117;28;20806;-85
2023/11/01 01:10:23;;;;;;;14.85;4.93;;;;;;;;;;10324335;28;20380;-76
2023/11/01 01:15:25;;;;;;;13.17;4.77;;;;;;;;;;10319858;28;20041;-84
2023/11/01 01:20:25;;;;;;;8.55;4.60;;;;;;;;;;10319294;28;20028;-85
2023/11/01 01:25:26;;;;;;;17.70;5.88;;;;;;;;;;10342696;28;20054;-81
2023/11/01 01:30:26;;;;;;;11.70;6.90;;;;;;;;;;10319966;28;20061;-78
2023/11/01 01:35:26;;;;;;;16.45;6.40;;;;;;;;;;10320896;28;20266;-80
2023/11/01 01:40:26;;;;;;;13.10;6.22;;;;;;;;;;10312931;28;20030;-84
2023/11/01 01:45:27;;;;;;;14.13;6.30;;;;;;;;;;10333922;28;20054;-78
2023/11/01 01:50:27;;;;;;;16.17;7.53;;;;;;;;;;10325389;28;20053;-80
2023/11/01 01:55:28;;;;;;;14.68;6.55;;;;;;;;;;10320511;28;20500;-84
2023/11/01 02:00:29;;;;;;;22.77;6.93;;;;;;;;;;10321990;28;20053;-76
2023/11/01 02:05:30;;;;;;;14.32;7.10;;;;;;;;;;10315422;28;20026;-76
2023/11/01 02:10:31;;;;;;;17.45;6.93;;;;;;;;;;10310182;28;20018;-77
2023/11/01 02:15:32;;;;;;;16.88;6.78;;;;;;;;;;10315301;28;20030;-79
2023/11/01 02:20:37;;;;;;;22.17;7.28;;;;;;;;;;10331477;28;20038;-84
2023/11/01 02:25:39;;;;;;;16.55;6.82;;;;;;;;;;10326964;28;20498;-80
2023/11/01 02:30:42;;;;;;;15.48;7.13;;;;;;;;;;10315906;28;20018;-76
2023/11/01 02:35:42;;;;;;;15.60;7.95;;;;;;;;;;10281137;23;20114;-67
2023/11/01 02:40:43;;;;;;;17.15;7.35;;;;;;;;;;10271098;28;20265;-68
2023/11/01 02:45:45;;;;;;;11.32;5.75;;;;;;;;;;10256379;28;20027;-69
2023/11/01 02:50:45;;;;;;;17.27;7.10;;;;;;;;;;10258294;28;20265;-69
2023/11/01 02:55:46;;;;;;;13.00;6.78;;;;;;;;;;10253741;28;20019;-68
2023/11/01 03:00:46;;;;;;;18.95;7.88;;;;;;;;;;10255113;28;20208;-68
2023/11/01 03:05:46;;;;;;;13.98;7.07;;;;;;;;;;10254663;28;20313;-68
2023/11/01 03:10:47;;;;;;;12.15;6.60;;;;;;;;;;10254911;28;20015;-68
2023/11/01 03:15:47;;;;;;;23.45;6.22;;;;;;;;;;10259598;28;20224;-68
2023/11/01 03:20:47;;;;;;;17.13;7.03;;;;;;;;;;10260879;28;20030;-67
2023/11/01 03:25:47;;;;;;;25.05;9.07;;;;;;;;;;10263081;28;20095;-67
2023/11/01 03:30:48;;;;;;;20.40;9.57;;;;;;;;;;10262877;28;20019;-67
2023/11/01 03:35:48;;;;;;;16.25;9.32;;;;;;;;;;10235467;28;20058;-67
2023/11/01 03:40:49;;;;;;;16.77;8.00;;;;;;;;;;10222756;29;20040;-67
2023/11/01 03:45:49;;;;;;;17.95;9.02;;;;;;;;;;10222782;29;20021;-68
2023/11/01 03:50:49;;;;;;;19.50;8.77;;;;;;;;;;10222534;29;20039;-67
2023/11/01 03:55:49;;;;;;;19.85;9.07;;;;;;;;;;10222305;29;20317;-67
2023/11/01 04:00:50;;;;;;;20.80;10.25;;;;;;;;;;10221329;28;20019;-67
2023/11/01 04:05:51;;;;;;;19.35;8.85;;;;;;;;;;10236655;29;20309;-67
2023/11/01 04:10:51;;;;;;;21.55;8.80;;;;;;;;;;10216141;28;20048;-68
2023/11/01 04:15:51;;;;;;;18.58;8.95;;;;;;;;;;10212404;29;20015;-68
2023/11/01 04:20:52;;;;;;;19.83;8.50;;;;;;;;;;10221499;29;20030;-68
2023/11/01 04:25:52;;;;;;;19.77;8.73;;;;;;;;;;10222305;29;20432;-67
2023/11/01 04:30:52;;;;;;;17.02;9.07;;;;;;;;;;10215628;29;20012;-68
2023/11/01 04:35:53;;;;;;;18.67;9.63;;;;;;;;;;10248224;28;20043;-68
2023/11/01 04:40:54;;;;;;;19.73;10.05;;;;;;;;;;10260451;28;20015;-68
2023/11/01 04:45:54;;;;;;;18.20;8.77;;;;;;;;;;10270028;28;20019;-67
2023/11/01 04:50:55;;;;;;;19.23;9.55;;;;;;;;;;10259051;28;20025;-67
2023/11/01 04:55:55;;;;;;;24.02;12.32;;;;;;;;;;10256701;28;20361;-68
2023/11/01 05:00:55;;;;;;;28.52;11.00;;;;;;;;;;10256039;28;20021;-68
2023/11/01 05:05:56;;;;;;;27.20;11.57;;;;;;;;;;10256896;28;20011;-69
2023/11/01 05:10:56;;;;;;;26.98;11.30;;;;;;;;;;10259203;28;20012;-68
2023/11/01 05:15:56;;;;;;;22.77;9.90;;;;;;;;;;10259077;28;20034;-69
2023/11/01 05:20:56;;;;;;;21.63;10.65;;;;;;;;;;10258887;28;20197;-69
2023/11/01 05:25:57;;;;;;;24.35;11.93;;;;;;;;;;10298569;28;20025;-68
2023/11/01 05:30:57;;;;;;;26.03;11.13;;;;;;;;;;10261965;28;20031;-69
2023/11/01 05:35:57;;;;;;;23.05;10.82;;;;;;;;;;10257814;28;20313;-68
2023/11/01 05:40:58;;;;;;;25.80;11.88;;;;;;;;;;10257568;28;20047;-68
2023/11/01 05:45:58;;;;;;;25.08;11.95;;;;;;;;;;10257942;28;20079;-68
2023/11/01 05:50:59;;;;;;;26.70;12.93;;;;;;;;;;10257675;28;20020;-68
2023/11/01 05:55:59;;;;;;;24.77;12.18;;;;;;;;;;10257327;28;20062;-69
2023/11/01 06:01:00;;;;;;;24.20;12.02;;;;;;;;;;10257293;28;20019;-69
2023/11/01 06:06:01;;;;;;;17.77;11.18;;;;;;;;;;10254220;28;20015;-69
2023/11/01 06:11:01;;;;;;;17.30;10.57;;;;;;;;;;10253477;28;20034;-69
2023/11/01 06:16:04;;;;;;;20.35;11.88;;;;;;;;;;10251273;28;20071;-69
2023/11/01 06:21:06;;;;;;;21.85;11.23;;;;;;;;;;10251183;28;20015;-70
2023/11/01 06:26:06;;;;;;;27.95;12.98;;;;;;;;;;10256391;28;20042;-68
2023/11/01 06:31:07;;;;;;;25.73;12.27;;;;;;;;;;10256225;28;20332;-69
2023/11/01 06:36:08;;;;;;;26.27;12.30;;;;;;;;;;10256136;28;20109;-69
2023/11/01 06:41:08;;;;;;;14.10;8.68;;;;;;;;;;10256312;28;20560;-71
2023/11/01 06:46:08;;;;;;;16.05;7.35;;;;;;;;;;10255667;28;20019;-70
2023/11/01 06:51:10;;;;;;;17.40;7.07;;;;;;;;;;10254701;28;20336;-68
2023/11/01 06:56:11;;;;;;;13.20;4.97;;;;;;;;;;10254703;28;20035;-69
2023/11/01 07:01:11;;;;;;;13.68;5.47;;;;;;;;;;10255289;28;20038;-70
2023/11/01 07:06:11;;;;;;;11.07;5.20;;;;;;;;;;10255650;28;20037;-68
2023/11/01 07:11:12;;;;;;;14.68;6.82;;;;;;;;;;10255346;28;20022;-69
2023/11/01 07:16:12;;;;;;;9.77;5.13;;;;;;;;;;10254948;28;20320;-69
2023/11/01 07:21:13;;;;;;;11.48;6.70;;;;;;;;;;10255298;28;20062;-71
2023/11/01 07:26:14;;;;;;;10.43;5.88;;;;;;;;;;10254035;28;20093;-69
2023/11/01 07:31:14;;;;;;;13.95;6.10;;;;;;;;;;10254839;28;20022;-70
2023/11/01 07:36:15;;;;;;;11.18;7.07;;;;;;;;;;10253549;28;20051;-70
2023/11/01 07:41:15;;;;;;;11.30;5.95;;;;;;;;;;10254918;28;20321;-69
2023/11/01 07:46:16;;;;;;;19.70;6.82;;;;;;;;;;10254373;28;20106;-69
2023/11/01 07:51:16;;;;;;;18.92;8.30;;;;;;;;;;10254095;28;20318;-69
2023/11/01 07:56:16;;;;;;;18.30;7.35;;;;;;;;;;10253459;28;20257;-71
2023/11/01 08:01:16;;;;;;;12.77;6.38;;;;;;;;;;10254084;28;20022;-69
2023/11/01 08:06:17;;;;;;;18.10;7.47;;;;;;;;;;10257600;28;20238;-70
2023/11/01 08:11:17;;;;;;;23.33;10.15;;;;;;;;;;10261270;28;20560;-69
2023/11/01 08:16:17;;;;;;;17.77;8.27;;;;;;;;;;10260636;28;20043;-70
2023/11/01 08:21:17;;;;;;;14.20;7.25;;;;;;;;;;10260462;28;20019;-69
2023/11/01 08:26:19;;;;;;;13.40;7.68;;;;;;;;;;10260740;28;20309;-70
2023/11/01 08:31:21;;;;;;;24.77;9.35;;;;;;;;;;10260884;28;20042;-69
2023/11/01 08:36:21;;;;;;;20.13;7.80;;;;;;;;;;10260060;28;20106;-70
2023/11/01 08:41:22;;;;;;;17.33;7.32;;;;;;;;;;10260079;28;20012;-70
2023/11/01 08:46:22;;;;;;;20.45;9.13;;;;;;;;;;10259701;28;20015;-69
2023/11/01 08:51:23;;;;;;;23.10;6.35;;;;;;;;;;10259326;28;20320;-69
2023/11/01 08:56:23;;;;;;;14.20;8.52;;;;;;;;;;10259463;28;20226;-70
2023/11/01 09:01:24;;;;;;;18.30;8.25;;;;;;;;;;10259148;28;20019;-69
2023/11/01 09:06:25;;;;;;;14.20;6.72;;;;;;;;;;10258365;28;20039;-69
2023/11/01 09:11:25;;;;;;;17.02;7.63;;;;;;;;;;10258709;28;20027;-69
2023/11/01 09:16:25;;;;;;;15.07;7.57;;;;;;;;;;10258182;28;20023;-68
2023/11/01 09:21:26;;;;;;;14.90;5.57;;;;;;;;;;10257495;28;20097;-68
2023/11/01 09:26:26;;;;;;;13.15;4.57;;;;;;;;;;10258284;28;20060;-70
2023/11/01 09:31:26;;;;;;;13.90;3.60;;;;;;;;;;10258258;28;20059;-70
2023/11/01 09:36:26;;;;;;;8.02;2.38;;;;;;;;;;10257550;28;20042;-70
2023/11/01 09:41:35;;;;;;;6.22;2.70;;;;;;;;;;10257352;28;20019;-70
2023/11/01 09:46:36;;;;;;;8.38;3.28;;;;;;;;;;10256385;28;20094;-69
2023/11/01 09:51:37;;;;;;;27.20;4.30;;;;;;;;;;10257374;28;20206;-70
2023/11/01 09:56:44;;;;;;;12.40;3.70;;;;;;;;;;10257985;28;20309;-69
2023/11/01 10:01:44;;;;;;;8.60;3.22;;;;;;;;;;10256756;29;20356;-69
2023/11/01 10:06:46;;;;;;;10.80;3.33;;;;;;;;;;10256773;28;20019;-72
2023/11/01 10:11:46;;;;;;;10.68;3.47;;;;;;;;;;10266654;28;20022;-69
2023/11/01 10:16:47;;;;;;;6.03;3.07;;;;;;;;;;10256237;28;20030;-69
2023/11/01 10:21:47;;;;;;;7.20;2.88;;;;;;;;;;10256153;28;20027;-70
2023/11/01 10:26:47;;;;;;;9.95;3.08;;;;;;;;;;10255092;28;20329;-69
2023/11/01 10:31:52;;;;;;;8.23;3.08;;;;;;;;;;10255733;28;20265;-69
2023/11/01 10:36:54;;;;;;;5.13;2.67;;;;;;;;;;10255966;28;20378;-69
2023/11/01 10:41:54;;;;;;;5.70;2.40;;;;;;;;;;10256100;28;20151;-69
2023/11/01 10:46:55;;;;;;;4.50;2.00;;;;;;;;;;10255539;28;20046;-69
2023/11/01 10:51:56;;;;;;;4.30;2.53;;;;;;;;;;10255627;28;20031;-69
2023/11/01 10:56:58;;;;;;;5.75;2.70;;;;;;;;;;10254983;28;20034;-69
2023/11/01 11:02:16;;;;;;;3.85;2.25;;;;;;;;;;10255246;28;20115;-70
2023/11/01 11:07:17;;;;;;;8.38;2.58;;;;;;;;;;10255442;28;20015;-68
2023/11/01 11:12:20;;;;;;;4.25;2.53;;;;;;;;;;10255111;28;20090;-69
2023/11/01 11:17:21;;;;;;;2.95;1.80;;;;;;;;;;10253651;28;20102;-70
2023/11/01 11:22:21;;;;;;;3.42;2.30;;;;;;;;;;10254821;28;20026;-69
2023/11/01 11:27:40;;;;;;;4.50;2.40;;;;;;;;;;10254402;28;20155;-70
2023/11/01 11:32:41;;;;;;;6.50;2.78;;;;;;;;;;10254713;28;20011;-69
2023/11/01 11:37:41;;;;;;;5.97;3.70;;;;;;;;;;10253663;28;20035;-69
2023/11/01 11:42:41;;;;;;;10.20;3.80;;;;;;;;;;10261207;28;20026;-70
2023/11/01 11:47:42;;;;;;;9.77;4.90;;;;;;;;;;10262185;28;20103;-69
2023/11/01 11:52:45;;;;;;;8.32;4.88;;;;;;;;;;10261902;28;20023;-68
2023/11/01 11:57:45;;;;;;;10.90;5.40;;;;;;;;;;10262073;28;20019;-69
2023/11/01 12:02:47;;;;;;;7.65;4.60;;;;;;;;;;10261717;28;20253;-68
2023/11/01 12:07:48;;;;;;;12.35;5.03;;;;;;;;;;10262059;28;20046;-69
2023/11/01 12:12:54;;;;;;;12.67;5.53;;;;;;;;;;10261174;28;20087;-68
2023/11/01 12:18:09;;;;;;;7.63;5.05;;;;;;;;;;10260943;28;20341;-69
2023/11/01 12:23:09;;;;;;;13.18;5.13;;;;;;;;;;10260843;28;20343;-69
2023/11/01 12:28:19;;;;;;;8.18;5.20;;;;;;;;;;10260756;28;20019;-69
2023/11/01 12:33:20;;;;;;;7.35;4.35;;;;;;;;;;10260221;28;20035;-69
2023/11/01 12:38:20;;;;;;;9.30;5.43;;;;;;;;;;10260627;28;20492;-69
2023/11/01 12:43:20;;;;;;;13.25;4.82;;;;;;;;;;10260347;28;20015;-69
2023/11/01 12:48:21;;;;;;;8.38;4.65;;;;;;;;;;10259898;28;20035;-69
2023/11/01 12:53:21;;;;;;;9.93;4.78;;;;;;;;;;10258092;28;20030;-69
2023/11/01 12:58:22;;;;;;;9.00;5.70;;;;;;;;;;10259451;28;20019;-70
2023/11/01 13:03:22;;;;;;;5.30;4.00;;;;;;;;;;10259222;28;20266;-69
2023/11/01 13:08:23;;;;;;;8.02;4.70;;;;;;;;;;10259426;28;20375;-69
2023/11/01 13:13:23;;;;;;;8.73;5.00;;;;;;;;;;10258762;28;20327;-69
2023/11/01 13:18:24;;;;;;;8.05;3.53;;;;;;;;;;10258698;28;20089;-68
2023/11/01 13:23:24;;;;;;;8.82;4.03;;;;;;;;;;10258546;28;20241;-69
2023/11/01 13:28:25;;;;;;;12.43;3.95;;;;;;;;;;10258286;28;20035;-69
2023/11/01 13:33:25;;;;;;;7.30;4.65;;;;;;;;;;10258191;28;20071;-69
2023/11/01 13:38:26;;;;;;;12.53;5.00;;;;;;;;;;10257556;28;20031;-69
2023/11/01 13:43:27;;;;;;;8.02;4.13;;;;;;;;;;10270718;28;20019;-69
2023/11/01 13:48:28;;;;;;;7.95;4.05;;;;;;;;;;10257371;28;20372;-69
2023/11/01 13:53:29;;;;;;;6.68;3.78;;;;;;;;;;10257131;28;20090;-68
2023/11/01 13:58:30;;;;;;;12.95;4.30;;;;;;;;;;10256878;28;20023;-69
2023/11/01 14:03:32;;;;;;;13.60;4.85;;;;;;;;;;10256910;28;20061;-68
2023/11/01 14:08:32;;;;;;;8.15;3.53;;;;;;;;;;10256665;28;20213;-72
2023/11/01 14:13:33;;;;;;;10.75;3.88;;;;;;;;;;10256848;28;20031;-73
2023/11/01 14:18:33;;;;;;;9.20;3.63;;;;;;;;;;10248904;28;20341;-70
2023/11/01 14:23:33;;;;;;;8.43;3.72;;;;;;;;;;10242777;28;20218;-70
2023/11/01 14:28:34;;;;;;;5.75;3.72;;;;;;;;;;10246573;28;20265;-69
2023/11/01 14:33:34;;;;;;;7.77;3.50;;;;;;;;;;10245069;28;20042;-69
2023/11/01 14:38:35;;;;;;;4.00;3.08;;;;;;;;;;10237548;28;20316;-69
2023/11/01 14:43:35;;;;;;;8.82;3.50;;;;;;;;;;10239756;28;20023;-69
2023/11/01 14:48:35;;;;;;;5.03;3.40;;;;;;;;;;10240408;28;20034;-69
2023/11/01 14:53:36;;;;;;;9.52;4.13;;;;;;;;;;10246658;28;20061;-70
2023/11/01 14:58:36;;;;;;;8.02;4.22;;;;;;;;;;10238489;28;20035;-70
2023/11/01 15:03:39;;;;;;;7.83;4.90;;;;;;;;;;10240648;28;20031;-70
2023/11/01 15:08:40;;;;;;;10.60;5.43;;;;;;;;;;10234513;28;20355;-76
2023/11/01 15:13:40;;;;;;;206.98;191.90;;;;;;;;;;10245902;28;20244;-70
2023/11/01 15:18:40;;;;;;;18.58;5.43;;;;;;;;;;10254254;28;20039;-70
2023/11/01 15:23:41;;;;;;;19.15;6.28;;;;;;;;;;10252176;28;20033;-70
2023/11/01 15:28:41;;;;;;;17.15;6.13;;;;;;;;;;10248164;28;20054;-71
2023/11/01 15:33:42;;;;;;;20.10;7.57;;;;;;;;;;10249683;28;20070;-70
2023/11/01 15:38:45;;;;;;;15.00;6.93;;;;;;;;;;10252923;28;20143;-71
2023/11/01 15:43:45;;;;;;;18.27;7.75;;;;;;;;;;10254475;28;20028;-70
2023/11/01 15:48:45;;;;;;;15.07;7.00;;;;;;;;;;10242497;28;20198;-71
2023/11/01 15:53:47;;;;;;;12.60;5.88;;;;;;;;;;10244448;28;20218;-71
2023/11/01 15:58:48;;;;;;;14.75;6.25;;;;;;;;;;10247739;28;20118;-70
2023/11/01 16:03:48;;;;;;;18.13;6.17;;;;;;;;;;10245927;28;20314;-69
2023/11/01 16:08:48;;;;;;;14.63;6.00;;;;;;;;;;10251987;28;20035;-71
2023/11/01 16:13:49;;;;;;;17.20;6.00;;;;;;;;;;10248105;28;20035;-71
2023/11/01 16:18:49;;;;;;;12.75;6.03;;;;;;;;;;10250680;28;20212;-70
2023/11/01 16:23:49;;;;;;;10.60;5.73;;;;;;;;;;10247420;28;20030;-70
2023/11/01 16:28:49;;;;;;;11.95;6.65;;;;;;;;;;10248228;28;20046;-71
2023/11/01 16:33:50;;;;;;;17.77;6.00;;;;;;;;;;10246250;28;20111;-71
2023/11/01 16:38:50;;;;;;;14.55;6.20;;;;;;;;;;10248659;28;20077;-70
2023/11/01 16:43:50;;;;;;;13.23;5.90;;;;;;;;;;10248148;28;20031;-70
2023/11/01 16:48:50;;;;;;;14.50;6.57;;;;;;;;;;10248634;28;20030;-71
2023/11/01 16:53:51;;;;;;;12.20;6.25;;;;;;;;;;10241529;28;20034;-73
2023/11/01 16:58:51;;;;;;;14.77;6.53;;;;;;;;;;10232683;28;20359;-75
2023/11/01 17:03:52;;;;;;;19.00;6.55;;;;;;;;;;10250788;28;20019;-75
2023/11/01 17:08:52;;;;;;;17.47;7.43;;;;;;;;;;10250014;28;20548;-74
2023/11/01 17:13:54;;;;;;;23.10;6.82;;;;;;;;;;10248899;28;20275;-74
2023/11/01 17:18:55;;;;;;;18.65;7.70;;;;;;;;;;10245064;28;20027;-77
2023/11/01 17:23:56;;;;;;;13.50;7.15;;;;;;;;;;10240727;28;20031;-77
2023/11/01 17:28:57;;;;;;;16.27;9.70;;;;;;;;;;10245767;28;20031;-74
2023/11/01 17:33:57;;;;;;;28.17;9.30;;;;;;;;;;10252660;28;20066;-73
2023/11/01 17:39:01;;;;;;;19.67;9.93;;;;;;;;;;10249061;28;20348;-71
2023/11/01 17:44:02;;;;;;;17.13;8.60;;;;;;;;;;10246603;28;20037;-72
2023/11/01 17:49:04;;;;;;;18.48;7.18;;;;;;;;;;10246785;28;20356;-75
2023/11/01 17:54:08;;;;;;;13.18;7.47;;;;;;;;;;10245551;28;20086;-78
2023/11/01 17:59:09;;;;;;;11.52;6.78;;;;;;;;;;10240168;28;20027;-80
2023/11/01 18:04:09;;;;;;;15.48;6.15;;;;;;;;;;10246113;28;20019;-71
2023/11/01 18:09:15;;;;;;;20.20;8.75;;;;;;;;;;10242564;28;20213;-75
2023/11/01 18:14:15;;;;;;;17.98;8.43;;;;;;;;;;10244624;28;20050;-75
2023/11/01 18:19:16;;;;;;;19.45;7.38;;;;;;;;;;10242827;28;20031;-74
2023/11/01 18:24:32;;;;;;;14.57;8.32;;;;;;;;;;10241749;28;20038;-75
2023/11/01 18:29:32;;;;;;;16.65;8.45;;;;;;;;;;10242215;28;20031;-74
2023/11/01 18:34:36;;;;;;;14.15;7.82;;;;;;;;;;10247940;28;20034;-71
2023/11/01 18:39:36;;;;;;;16.95;8.90;;;;;;;;;;10243746;28;20042;-72
2023/11/01 18:44:38;;;;;;;18.02;8.75;;;;;;;;;;10242344;28;20237;-71
2023/11/01 18:50:03;;;;;;;21.23;8.02;;;;;;;;;;10243835;28;20023;-71
2023/11/01 18:55:07;;;;;;;14.82;9.48;;;;;;;;;;10256795;28;20031;-71
2023/11/01 19:00:11;;;;;;;18.85;9.20;;;;;;;;;;10247619;28;20392;-70
2023/11/01 19:05:14;;;;;;;20.60;10.55;;;;;;;;;;10241681;28;20305;-70
2023/11/01 19:10:15;;;;;;;13.30;8.18;;;;;;;;;;10240581;28;20023;-70
2023/11/01 19:15:27;;;;;;;21.45;9.13;;;;;;;;;;10238927;28;20019;-76
2023/11/01 19:20:27;;;;;;;20.50;9.70;;;;;;;;;;10250346;28;20022;-71
2023/11/01 19:25:28;;;;;;;16.20;8.82;;;;;;;;;;10250100;28;20324;-69
2023/11/01 19:30:28;;;;;;;19.52;8.55;;;;;;;;;;10248966;28;20027;-69
2023/11/01 19:35:29;;;;;;;14.40;8.10;;;;;;;;;;10250516;28;20034;-72
2023/11/01 19:40:29;;;;;;;13.45;7.53;;;;;;;;;;10247848;28;20034;-74
2023/11/01 19:45:29;;;;;;;14.23;6.27;;;;;;;;;;10247945;28;20046;-72
2023/11/01 19:50:30;;;;;;;15.32;7.07;;;;;;;;;;10247785;28;20266;-73
2023/11/01 19:55:31;;;;;;;12.13;6.43;;;;;;;;;;10250978;28;20121;-70
2023/11/01 20:00:33;;;;;;;13.60;6.40;;;;;;;;;;10253792;28;20120;-76
2023/11/01 20:05:34;;;;;;;11.88;6.93;;;;;;;;;;10256500;28;20015;-72
2023/11/01 20:10:34;;;;;;;17.10;7.73;;;;;;;;;;10258265;28;20317;-68
2023/11/01 20:15:34;;;;;;;11.90;7.28;;;;;;;;;;10256440;28;20266;-76
2023/11/01 20:20:35;;;;;;;13.70;7.38;;;;;;;;;;10257105;28;20026;-75
2023/11/01 20:25:35;;;;;;;14.45;6.78;;;;;;;;;;10254123;28;20023;-73
2023/11/01 20:30:36;;;;;;;12.90;5.32;;;;;;;;;;10253818;28;20027;-73
2023/11/01 20:35:37;;;;;;;11.65;6.22;;;;;;;;;;10253803;28;20035;-73
2023/11/01 20:40:37;;;;;;;14.88;6.95;;;;;;;;;;10253626;28;20460;-72
2023/11/01 20:45:39;;;;;;;16.73;8.57;;;;;;;;;;10252139;28;20031;-77
2023/11/01 20:50:39;;;;;;;17.98;9.15;;;;;;;;;;10251933;28;20019;-75
2023/11/01 20:55:40;;;;;;;14.93;9.35;;;;;;;;;;10241139;28;20523;-70
2023/11/01 21:00:40;;;;;;;15.05;9.40;;;;;;;;;;10244973;28;20027;-70
2023/11/01 21:05:40;;;;;;;17.83;9.23;;;;;;;;;;10260735;28;20049;-68
2023/11/01 21:10:41;;;;;;;19.90;9.20;;;;;;;;;;10258155;28;20023;-69
2023/11/01 21:15:41;;;;;;;20.73;9.40;;;;;;;;;;10258931;28;20027;-70
2023/11/01 21:20:42;;;;;;;12.90;7.03;;;;;;;;;;10258863;28;20074;-69
2023/11/01 21:25:42;;;;;;;19.27;8.13;;;;;;;;;;10258870;28;20066;-68
2023/11/01 21:30:42;;;;;;;16.00;8.10;;;;;;;;;;10258823;28;20232;-70
2023/11/01 21:35:42;;;;;;;13.43;8.43;;;;;;;;;;10258169;28;20339;-69
2023/11/01 21:40:46;;;;;;;12.77;7.00;;;;;;;;;;10258390;28;20352;-68
2023/11/01 21:45:50;;;;;;;11.13;6.10;;;;;;;;;;10257957;28;20015;-68
2023/11/01 21:50:57;;;;;;;14.55;7.30;;;;;;;;;;10257707;28;20351;-69
2023/11/01 21:55:58;;;;;;;12.02;6.28;;;;;;;;;;10256331;28;20225;-69
2023/11/01 22:01:01;;;;;;;10.10;5.70;;;;;;;;;;10255819;28;20027;-68
2023/11/01 22:06:03;;;;;;;17.75;5.63;;;;;;;;;;10285677;28;20194;-68
2023/11/01 22:11:09;;;;;;;13.27;6.15;;;;;;;;;;10257296;28;20023;-68
2023/11/01 22:16:18;;;;;;;17.17;6.32;;;;;;;;;;10256685;28;20086;-68
2023/11/01 22:21:18;;;;;;;11.85;5.72;;;;;;;;;;10256638;28;20246;-68
2023/11/01 22:26:25;;;;;;;7.60;5.78;;;;;;;;;;10255591;28;20122;-69
2023/11/01 22:31:29;;;;;;;10.27;6.30;;;;;;;;;;10256252;28;20023;-69
2023/11/01 22:36:29;;;;;;;11.80;6.47;;;;;;;;;;10255677;28;20046;-69
2023/11/01 22:41:30;;;;;;;8.85;6.22;;;;;;;;;;10256075;28;20057;-68
2023/11/01 22:46:30;;;;;;;10.43;6.43;;;;;;;;;;10255849;28;20058;-68
2023/11/01 22:51:31;;;;;;;9.73;6.47;;;;;;;;;;10256157;28;20070;-68
2023/11/01 22:56:31;;;;;;;13.02;6.68;;;;;;;;;;10255855;28;20673;-71
2023/11/01 23:01:33;;;;;;;12.48;6.50;;;;;;;;;;10255583;28;20027;-69
2023/11/01 23:06:33;;;;;;;12.60;6.72;;;;;;;;;;10255513;28;20034;-68
2023/11/01 23:11:34;;;;;;;16.25;7.38;;;;;;;;;;10255130;28;20039;-68
2023/11/01 23:16:38;;;;;;;12.55;7.53;;;;;;;;;;10255252;28;20027;-67
2023/11/01 23:21:39;;;;;;;13.93;7.38;;;;;;;;;;10253762;28;20121;-69
2023/11/01 23:26:42;;;;;;;16.55;6.90;;;;;;;;;;10238833;28;20360;-68
2023/11/01 23:31:43;;;;;;;13.85;7.55;;;;;;;;;;10242472;28;20065;-68
2023/11/01 23:36:44;;;;;;;12.15;7.85;;;;;;;;;;10259396;28;20051;-69
2023/11/01 23:41:46;;;;;;;12.95;7.47;;;;;;;;;;10262901;28;20031;-68
2023/11/01 23:46:46;;;;;;;18.92;9.05;;;;;;;;;;10262734;28;20076;-68
2023/11/01 23:51:47;;;;;;;13.55;7.40;;;;;;;;;;10261827;28;20109;-68
2023/11/01 23:56:47;;;;;;;16.27;9.70;;;;;;;;;;10262360;28;20031;-68
